Time;durP1;ratioP1;P1;durP2;ratioP2;P2;SDS_P1;SDS_P2;PMS_P1;PMS_P2;Temp;Humidity;BMP_temperature;BMP_pressure;BME280_temperature;BME280_humidity;BME280_pressure;Samples;Min_cycle;Max_cycle;Signal;HPM_P1;HPM_P2
2022/11/17 00:00:09;;;;;;;19.42;11.45;;;;;;;;;;5093413;28;20020;-78
2022/11/17 00:02:35;;;;;;;18.27;10.82;;;;;;;;;;5088363;28;20020;-79
2022/11/17 00:05:05;;;;;;;15.55;11.32;;;;;;;;;;5089045;28;20020;-78
2022/11/17 00:07:31;;;;;;;16.20;11.50;;;;;;;;;;5086340;28;20674;-78
2022/11/17 00:09:57;;;;;;;16.48;11.15;;;;;;;;;;5089995;28;20243;-79
2022/11/17 00:15:08;;;;;;;18.17;12.98;;;;;;;;;;5098888;28;20328;-78
2022/11/17 00:17:34;;;;;;;16.00;11.32;;;;;;;;;;5066116;28;20028;-78
2022/11/17 00:22:45;;;;;;;16.05;10.82;;;;;;;;;;5086674;28;20047;-78
2022/11/17 00:25:11;;;;;;;17.90;10.95;;;;;;;;;;5088957;28;20027;-78
2022/11/17 00:27:37;;;;;;;17.48;11.80;;;;;;;;;;5088691;28;20482;-77
2022/11/17 00:30:04;;;;;;;15.57;11.70;;;;;;;;;;5090452;28;20107;-79
2022/11/17 00:35:14;;;;;;;14.43;12.20;;;;;;;;;;5077796;28;20449;-78
2022/11/17 00:40:25;;;;;;;17.83;12.10;;;;;;;;;;5086557;28;20031;-78
2022/11/17 00:42:51;;;;;;;15.60;12.02;;;;;;;;;;5088297;28;20039;-78
2022/11/17 00:45:17;;;;;;;19.80;11.82;;;;;;;;;;5092815;28;20129;-77
2022/11/17 00:47:43;;;;;;;15.05;12.38;;;;;;;;;;5067815;28;20024;-78
2022/11/17 00:50:09;;;;;;;16.35;11.45;;;;;;;;;;5093897;28;20054;-78
2022/11/17 00:52:35;;;;;;;19.05;12.45;;;;;;;;;;5090513;28;20103;-78
2022/11/17 00:55:01;;;;;;;15.93;11.23;;;;;;;;;;5091958;28;20025;-79
2022/11/17 00:57:27;;;;;;;16.95;11.05;;;;;;;;;;5091978;28;20023;-78
2022/11/17 00:59:53;;;;;;;14.95;11.48;;;;;;;;;;5091212;28;20032;-78
2022/11/17 01:02:20;;;;;;;15.02;11.07;;;;;;;;;;5092249;28;20526;-78
2022/11/17 01:04:46;;;;;;;19.73;13.10;;;;;;;;;;5073904;28;20020;-77
2022/11/17 01:07:12;;;;;;;18.00;12.88;;;;;;;;;;5088869;28;20059;-79
2022/11/17 01:09:38;;;;;;;18.70;12.18;;;;;;;;;;5089981;28;20039;-77
2022/11/17 01:12:04;;;;;;;15.50;12.40;;;;;;;;;;5073502;28;20039;-78
2022/11/17 01:14:31;;;;;;;24.13;12.32;;;;;;;;;;5088658;28;20036;-78
2022/11/17 01:16:57;;;;;;;17.58;12.43;;;;;;;;;;5086254;28;20020;-78
2022/11/17 01:19:23;;;;;;;21.52;12.25;;;;;;;;;;5085542;28;20016;-78
2022/11/17 01:21:49;;;;;;;17.40;11.68;;;;;;;;;;5086238;28;20674;-79
2022/11/17 01:24:16;;;;;;;17.23;11.98;;;;;;;;;;5085778;28;20089;-77
2022/11/17 01:26:43;;;;;;;18.10;12.27;;;;;;;;;;5088680;28;20020;-78
2022/11/17 01:29:11;;;;;;;20.23;12.77;;;;;;;;;;5093225;28;20032;-79
2022/11/17 01:31:38;;;;;;;16.80;12.80;;;;;;;;;;5068023;28;20034;-78
2022/11/17 01:34:04;;;;;;;20.95;13.35;;;;;;;;;;5092292;28;20396;-78
2022/11/17 01:37:17;;;;;;;21.88;13.93;;;;;;;;;;5090261;28;20031;-78
2022/11/17 01:39:22;;;;;;;19.70;14.25;;;;;;;;;;5091291;28;20035;-78
2022/11/17 01:41:48;;;;;;;24.40;15.20;;;;;;;;;;5092960;28;20038;-78
2022/11/17 01:44:33;;;;;;;22.77;15.27;;;;;;;;;;5089626;28;20529;-77
2022/11/17 01:46:59;;;;;;;20.70;14.05;;;;;;;;;;5075421;28;20032;-77
2022/11/17 01:49:26;;;;;;;20.27;13.38;;;;;;;;;;5095684;28;20027;-78
2022/11/17 01:51:55;;;;;;;20.13;14.00;;;;;;;;;;5091879;28;21281;-78
2022/11/17 01:54:25;;;;;;;17.95;13.43;;;;;;;;;;5095573;28;20085;-78
2022/11/17 01:56:54;;;;;;;17.58;13.13;;;;;;;;;;5090621;28;20024;-77
2022/11/17 01:59:23;;;;;;;16.60;12.32;;;;;;;;;;5089907;28;20194;-77
2022/11/17 02:01:56;;;;;;;17.00;13.00;;;;;;;;;;5095719;28;20055;-78
2022/11/17 02:04:37;;;;;;;22.42;13.88;;;;;;;;;;5093027;28;20050;-77
2022/11/17 02:07:07;;;;;;;20.98;12.48;;;;;;;;;;5089343;28;20501;-77
2022/11/17 02:09:35;;;;;;;24.02;12.40;;;;;;;;;;5089743;28;20522;-78
2022/11/17 02:12:02;;;;;;;18.80;12.65;;;;;;;;;;5094624;28;20053;-78
2022/11/17 02:14:28;;;;;;;20.90;13.45;;;;;;;;;;5066421;28;20484;-78
2022/11/17 02:16:54;;;;;;;27.52;14.73;;;;;;;;;;5090164;28;20084;-78
2022/11/17 02:19:20;;;;;;;27.52;16.02;;;;;;;;;;5087700;28;20103;-78
2022/11/17 02:21:56;;;;;;;23.40;15.20;;;;;;;;;;5089673;28;20032;-78
2022/11/17 02:24:28;;;;;;;29.67;15.68;;;;;;;;;;5089076;28;20031;-78
2022/11/17 02:26:57;;;;;;;22.60;14.48;;;;;;;;;;5089405;28;20039;-78
2022/11/17 02:29:37;;;;;;;24.83;14.40;;;;;;;;;;5083097;28;20028;-78
2022/11/17 02:32:11;;;;;;;24.02;15.13;;;;;;;;;;5083000;28;20032;-77
2022/11/17 02:34:37;;;;;;;24.25;15.32;;;;;;;;;;5043219;28;20064;-79
2022/11/17 02:37:15;;;;;;;25.40;15.00;;;;;;;;;;5049592;28;20028;-78
2022/11/17 02:39:45;;;;;;;23.67;15.15;;;;;;;;;;5049050;28;20029;-78
2022/11/17 02:45:21;;;;;;;22.50;14.98;;;;;;;;;;5047217;28;20024;-77
2022/11/17 02:47:50;;;;;;;22.55;14.77;;;;;;;;;;5049318;28;20057;-78
2022/11/17 02:50:18;;;;;;;26.67;14.13;;;;;;;;;;5046796;28;20263;-79
2022/11/17 02:52:47;;;;;;;21.15;13.98;;;;;;;;;;5050286;28;20025;-78
2022/11/17 02:55:13;;;;;;;25.52;13.20;;;;;;;;;;5047538;28;20190;-78
2022/11/17 02:57:40;;;;;;;21.90;14.45;;;;;;;;;;5053621;28;20024;-78
2022/11/17 03:00:13;;;;;;;26.52;13.63;;;;;;;;;;5048375;28;20060;-78
2022/11/17 03:02:52;;;;;;;24.95;12.85;;;;;;;;;;5047071;28;20602;-78
2022/11/17 03:05:38;;;;;;;25.67;12.60;;;;;;;;;;5038690;28;20029;-78
2022/11/17 03:08:10;;;;;;;25.33;12.98;;;;;;;;;;5048920;28;20029;-78
2022/11/17 03:10:36;;;;;;;25.10;13.25;;;;;;;;;;5046531;28;20260;-78
2022/11/17 03:13:24;;;;;;;22.02;12.07;;;;;;;;;;5047762;28;20068;-78
2022/11/17 03:16:08;;;;;;;26.38;13.18;;;;;;;;;;5044927;28;20035;-78
2022/11/17 03:18:37;;;;;;;20.25;11.13;;;;;;;;;;5044245;28;20032;-78
2022/11/17 03:21:03;;;;;;;22.27;12.07;;;;;;;;;;5048793;28;20478;-78
2022/11/17 03:23:50;;;;;;;20.65;12.90;;;;;;;;;;5045844;28;20037;-78
2022/11/17 03:26:29;;;;;;;23.63;12.27;;;;;;;;;;5046148;28;20045;-77
2022/11/17 03:28:56;;;;;;;26.75;12.85;;;;;;;;;;5048471;28;20032;-77
2022/11/17 03:31:24;;;;;;;19.98;11.57;;;;;;;;;;5050276;28;20032;-78
2022/11/17 03:33:50;;;;;;;23.40;11.95;;;;;;;;;;5077499;28;20493;-78
2022/11/17 03:36:18;;;;;;;29.67;12.90;;;;;;;;;;5088631;28;20032;-78
2022/11/17 03:38:46;;;;;;;21.55;11.18;;;;;;;;;;5081076;28;20032;-78
2022/11/17 03:41:13;;;;;;;34.55;11.80;;;;;;;;;;5082450;28;20035;-78
2022/11/17 03:43:40;;;;;;;21.20;10.75;;;;;;;;;;5086295;28;20031;-78
2022/11/17 03:46:08;;;;;;;22.67;10.68;;;;;;;;;;5090783;28;20031;-77
2022/11/17 03:48:37;;;;;;;28.45;11.18;;;;;;;;;;5082753;28;20035;-79
2022/11/17 03:51:15;;;;;;;34.80;12.68;;;;;;;;;;5088122;28;20115;-78
2022/11/17 03:53:42;;;;;;;23.48;11.80;;;;;;;;;;5090496;28;20012;-78
2022/11/17 03:56:22;;;;;;;21.73;11.93;;;;;;;;;;5090655;28;20020;-78
2022/11/17 03:58:57;;;;;;;25.98;11.10;;;;;;;;;;5088950;28;20100;-78
2022/11/17 04:01:25;;;;;;;21.25;10.95;;;;;;;;;;5086637;28;20024;-79
2022/11/17 04:03:51;;;;;;;23.45;11.05;;;;;;;;;;5071842;28;20036;-78
2022/11/17 04:06:17;;;;;;;29.65;12.32;;;;;;;;;;5070741;28;20190;-78
2022/11/17 04:08:43;;;;;;;22.17;11.32;;;;;;;;;;5085849;28;20036;-78
2022/11/17 04:16:39;;;;;;;50.80;10.77;;;;;;;;;;5082703;28;20512;-79
2022/11/17 04:19:05;;;;;;;37.15;12.00;;;;;;;;;;5081245;28;20092;-78
2022/11/17 04:21:31;;;;;;;24.77;11.48;;;;;;;;;;5093835;28;20050;-77
2022/11/17 04:23:57;;;;;;;32.70;12.40;;;;;;;;;;5087948;28;20017;-78
2022/11/17 04:29:08;;;;;;;26.30;12.00;;;;;;;;;;5088591;28;20507;-78
2022/11/17 04:31:35;;;;;;;22.25;11.35;;;;;;;;;;5072226;28;20123;-78
2022/11/17 04:34:02;;;;;;;37.13;14.02;;;;;;;;;;5069915;28;20052;-78
2022/11/17 04:36:34;;;;;;;23.95;10.85;;;;;;;;;;5091796;28;20033;-79
2022/11/17 04:39:00;;;;;;;29.85;13.02;;;;;;;;;;5092705;28;20020;-79
2022/11/17 04:44:13;;;;;;;37.13;12.55;;;;;;;;;;5082171;28;20090;-78
2022/11/17 04:46:46;;;;;;;25.33;13.70;;;;;;;;;;5086765;28;20077;-78
2022/11/17 04:49:13;;;;;;;26.85;12.45;;;;;;;;;;5082357;28;20382;-77
2022/11/17 04:51:39;;;;;;;30.40;11.93;;;;;;;;;;5068423;28;20286;-78
2022/11/17 04:54:06;;;;;;;36.67;12.85;;;;;;;;;;5082257;28;20829;-77
2022/11/17 04:56:32;;;;;;;39.25;12.95;;;;;;;;;;5086925;28;20035;-78
2022/11/17 04:58:58;;;;;;;50.67;14.23;;;;;;;;;;5087638;28;20054;-79
2022/11/17 05:01:25;;;;;;;40.13;13.25;;;;;;;;;;5081033;28;20017;-79
2022/11/17 05:03:56;;;;;;;34.20;12.18;;;;;;;;;;5087683;28;20056;-78
2022/11/17 05:06:22;;;;;;;26.13;10.82;;;;;;;;;;5088639;28;20024;-78
2022/11/17 05:08:48;;;;;;;19.95;11.82;;;;;;;;;;5088406;28;20028;-78
2022/11/17 05:14:00;;;;;;;40.88;13.02;;;;;;;;;;5090280;28;20051;-78
2022/11/17 05:19:12;;;;;;;39.95;14.50;;;;;;;;;;5087065;28;20037;-78
2022/11/17 05:21:38;;;;;;;74.90;16.00;;;;;;;;;;5070750;28;20035;-77
2022/11/17 05:24:05;;;;;;;42.15;12.48;;;;;;;;;;5070328;28;20031;-78
2022/11/17 05:26:32;;;;;;;38.00;12.73;;;;;;;;;;5073344;28;20040;-79
2022/11/17 05:28:59;;;;;;;31.65;14.02;;;;;;;;;;5069519;28;20465;-78
2022/11/17 05:31:26;;;;;;;59.50;14.57;;;;;;;;;;5069874;28;20039;-77
2022/11/17 05:33:52;;;;;;;76.50;14.50;;;;;;;;;;5090397;28;20051;-78
2022/11/17 05:36:18;;;;;;;37.38;13.98;;;;;;;;;;5093893;28;20073;-78
2022/11/17 05:38:46;;;;;;;47.70;14.15;;;;;;;;;;5091893;28;20024;-78
2022/11/17 05:41:12;;;;;;;45.42;14.20;;;;;;;;;;5081600;28;20497;-77
2022/11/17 05:43:38;;;;;;;43.90;14.60;;;;;;;;;;5090687;28;20033;-79
2022/11/17 05:46:04;;;;;;;27.23;12.45;;;;;;;;;;5075185;28;20188;-78
2022/11/17 05:48:32;;;;;;;87.18;14.38;;;;;;;;;;5090504;28;20027;-80
2022/11/17 05:51:01;;;;;;;32.03;12.40;;;;;;;;;;5075230;28;20028;-78
2022/11/17 05:53:28;;;;;;;61.17;15.15;;;;;;;;;;5092834;28;20027;-80
2022/11/17 05:56:20;;;;;;;64.13;15.85;;;;;;;;;;5082364;28;20020;-78
2022/11/17 05:58:49;;;;;;;36.58;11.75;;;;;;;;;;5077007;28;20031;-77
2022/11/17 06:01:17;;;;;;;38.20;12.32;;;;;;;;;;5093349;28;20036;-79
2022/11/17 06:03:48;;;;;;;71.80;16.23;;;;;;;;;;5090167;28;20059;-78
2022/11/17 06:06:15;;;;;;;37.42;13.43;;;;;;;;;;5086144;28;20020;-78
2022/11/17 06:08:41;;;;;;;44.70;12.45;;;;;;;;;;5089614;28;20031;-77
2022/11/17 06:11:07;;;;;;;49.65;14.98;;;;;;;;;;5074781;28;20092;-78
2022/11/17 06:13:33;;;;;;;86.30;15.30;;;;;;;;;;5089742;28;20024;-78
2022/11/17 06:16:01;;;;;;;43.85;13.23;;;;;;;;;;5086708;28;20612;-79
2022/11/17 06:18:34;;;;;;;44.95;13.50;;;;;;;;;;5066472;28;20024;-78
2022/11/17 06:21:01;;;;;;;49.35;13.65;;;;;;;;;;5072052;28;20259;-78
2022/11/17 06:23:30;;;;;;;46.17;12.55;;;;;;;;;;5066789;28;20028;-77
2022/11/17 06:25:57;;;;;;;87.97;17.15;;;;;;;;;;5062938;28;20024;-78
2022/11/17 06:28:23;;;;;;;35.95;12.13;;;;;;;;;;5072528;28;20067;-78
2022/11/17 06:30:49;;;;;;;73.10;15.45;;;;;;;;;;5091439;28;20023;-78
2022/11/17 06:33:18;;;;;;;75.32;14.20;;;;;;;;;;5068840;28;20537;-78
2022/11/17 06:35:45;;;;;;;39.55;12.68;;;;;;;;;;5071023;28;20027;-78
2022/11/17 06:38:11;;;;;;;46.80;10.68;;;;;;;;;;5065131;28;20111;-79
2022/11/17 06:40:37;;;;;;;88.38;16.23;;;;;;;;;;5064166;28;20028;-79
2022/11/17 06:43:07;;;;;;;80.75;13.68;;;;;;;;;;5070924;28;20028;-79
2022/11/17 06:45:37;;;;;;;55.75;13.70;;;;;;;;;;5072629;28;20070;-78
2022/11/17 06:48:04;;;;;;;55.38;12.32;;;;;;;;;;5071133;28;20055;-78
2022/11/17 06:50:30;;;;;;;47.45;10.88;;;;;;;;;;5073275;28;20090;-77
2022/11/17 06:53:00;;;;;;;41.38;12.98;;;;;;;;;;5067844;28;20044;-78
2022/11/17 06:55:26;;;;;;;37.70;11.50;;;;;;;;;;5067689;28;20024;-78
2022/11/17 06:57:58;;;;;;;42.88;12.27;;;;;;;;;;5068967;28;20408;-79
2022/11/17 07:00:24;;;;;;;59.88;11.98;;;;;;;;;;5065061;28;20028;-78
2022/11/17 07:02:50;;;;;;;38.05;10.35;;;;;;;;;;5068961;28;20028;-78
2022/11/17 07:05:16;;;;;;;70.68;12.45;;;;;;;;;;5062041;28;20040;-78
2022/11/17 07:07:42;;;;;;;55.85;11.35;;;;;;;;;;5065022;28;20054;-78
2022/11/17 07:10:08;;;;;;;39.95;10.40;;;;;;;;;;5064900;28;20028;-78
2022/11/17 07:12:35;;;;;;;23.77;8.77;;;;;;;;;;5068766;28;20058;-78
2022/11/17 07:15:01;;;;;;;26.05;9.32;;;;;;;;;;5067590;28;20028;-78
2022/11/17 07:17:28;;;;;;;26.70;8.18;;;;;;;;;;5068578;28;20067;-78
2022/11/17 07:19:54;;;;;;;27.25;8.73;;;;;;;;;;5065188;28;20032;-78
2022/11/17 07:22:20;;;;;;;70.43;11.18;;;;;;;;;;5066014;28;20035;-80
2022/11/17 07:24:46;;;;;;;27.48;8.95;;;;;;;;;;5068815;28;20029;-78
2022/11/17 07:27:12;;;;;;;24.70;8.73;;;;;;;;;;5066575;28;20021;-78
2022/11/17 07:29:39;;;;;;;61.30;9.77;;;;;;;;;;5074022;28;20042;-79
2022/11/17 07:32:05;;;;;;;35.83;8.95;;;;;;;;;;5071962;28;20028;-79
2022/11/17 07:34:32;;;;;;;26.08;8.90;;;;;;;;;;5068191;28;20053;-78
2022/11/17 07:36:58;;;;;;;39.35;8.52;;;;;;;;;;5071052;28;20032;-77
2022/11/17 07:39:24;;;;;;;61.30;12.30;;;;;;;;;;5066537;28;20025;-78
2022/11/17 07:41:50;;;;;;;45.67;8.52;;;;;;;;;;5069312;28;20112;-78
2022/11/17 07:44:16;;;;;;;24.75;8.13;;;;;;;;;;5068365;28;20108;-77
2022/11/17 07:46:42;;;;;;;34.50;9.75;;;;;;;;;;5067500;28;20034;-78
2022/11/17 07:49:08;;;;;;;40.42;11.85;;;;;;;;;;5067358;28;20062;-78
2022/11/17 07:51:34;;;;;;;50.30;10.68;;;;;;;;;;5066528;28;20116;-78
2022/11/17 07:54:00;;;;;;;47.67;9.75;;;;;;;;;;5066088;28;20039;-78
2022/11/17 07:56:26;;;;;;;26.60;8.32;;;;;;;;;;5068243;28;20084;-77
2022/11/17 07:58:53;;;;;;;26.77;9.02;;;;;;;;;;5068013;28;20078;-77
2022/11/17 08:01:19;;;;;;;29.13;8.85;;;;;;;;;;5066502;28;20061;-79
2022/11/17 08:03:45;;;;;;;34.22;10.90;;;;;;;;;;5064748;28;20020;-78
2022/11/17 08:06:12;;;;;;;17.50;7.95;;;;;;;;;;5063650;28;20046;-78
2022/11/17 08:08:38;;;;;;;19.00;7.65;;;;;;;;;;5062635;28;20052;-76
2022/11/17 08:11:05;;;;;;;31.02;8.57;;;;;;;;;;5065606;28;20658;-78
2022/11/17 08:13:31;;;;;;;16.23;8.90;;;;;;;;;;5061149;28;20025;-77
2022/11/17 08:15:58;;;;;;;25.63;8.35;;;;;;;;;;5066647;28;20417;-78
2022/11/17 08:18:24;;;;;;;43.80;10.77;;;;;;;;;;5064380;28;20467;-78
2022/11/17 08:20:50;;;;;;;20.95;9.20;;;;;;;;;;5068181;28;20035;-77
2022/11/17 08:23:17;;;;;;;25.20;10.43;;;;;;;;;;5069027;28;20101;-77
2022/11/17 08:25:43;;;;;;;31.58;9.10;;;;;;;;;;5067019;28;20040;-77
2022/11/17 08:28:09;;;;;;;29.52;10.20;;;;;;;;;;5066218;28;20098;-77
2022/11/17 08:30:35;;;;;;;26.90;10.20;;;;;;;;;;5066175;28;20075;-78
2022/11/17 08:33:01;;;;;;;38.15;9.70;;;;;;;;;;5071405;28;20044;-79
2022/11/17 08:35:28;;;;;;;43.42;10.20;;;;;;;;;;5084578;28;20528;-77
2022/11/17 08:37:54;;;;;;;19.92;8.25;;;;;;;;;;5084866;28;20044;-78
2022/11/17 08:40:20;;;;;;;73.57;10.57;;;;;;;;;;5082732;28;20031;-76
2022/11/17 08:42:47;;;;;;;47.97;12.52;;;;;;;;;;5084873;28;20506;-78
2022/11/17 08:45:13;;;;;;;60.22;11.63;;;;;;;;;;5083503;28;20035;-77
2022/11/17 08:47:40;;;;;;;43.83;10.98;;;;;;;;;;5088090;28;20156;-76
2022/11/17 08:50:06;;;;;;;53.67;12.10;;;;;;;;;;5086394;28;20024;-78
2022/11/17 08:52:32;;;;;;;75.30;13.07;;;;;;;;;;5090222;28;20024;-77
2022/11/17 08:54:59;;;;;;;61.58;13.00;;;;;;;;;;5085634;28;20028;-78
2022/11/17 08:57:25;;;;;;;33.80;8.32;;;;;;;;;;5087914;28;20024;-77
2022/11/17 08:59:51;;;;;;;25.40;9.77;;;;;;;;;;5067983;28;20085;-77
2022/11/17 09:02:17;;;;;;;52.38;11.95;;;;;;;;;;5065369;28;20039;-77
2022/11/17 09:04:44;;;;;;;30.92;10.55;;;;;;;;;;5086107;28;20256;-77
2022/11/17 09:07:11;;;;;;;21.67;9.90;;;;;;;;;;5069709;28;20381;-76
2022/11/17 09:09:37;;;;;;;35.05;11.55;;;;;;;;;;5067263;28;20056;-77
2022/11/17 09:12:03;;;;;;;36.03;10.77;;;;;;;;;;5079852;28;20112;-78
2022/11/17 09:14:30;;;;;;;32.38;9.93;;;;;;;;;;5068257;28;20030;-77
2022/11/17 09:16:56;;;;;;;26.83;9.57;;;;;;;;;;5089273;28;20024;-78
2022/11/17 09:19:22;;;;;;;32.78;10.63;;;;;;;;;;5078708;28;20088;-78
2022/11/17 09:21:48;;;;;;;22.38;9.65;;;;;;;;;;5090684;28;20119;-79
2022/11/17 09:24:14;;;;;;;25.95;10.82;;;;;;;;;;5089990;28;20043;-77
2022/11/17 09:26:41;;;;;;;39.65;10.52;;;;;;;;;;5070440;28;20493;-77
2022/11/17 09:29:08;;;;;;;23.60;9.98;;;;;;;;;;5068766;28;20490;-77
2022/11/17 09:31:35;;;;;;;21.80;8.20;;;;;;;;;;5072769;28;20028;-77
2022/11/17 09:34:01;;;;;;;17.42;9.45;;;;;;;;;;5074984;28;20044;-78
2022/11/17 09:36:27;;;;;;;15.45;7.95;;;;;;;;;;5075354;28;20031;-78
2022/11/17 09:38:53;;;;;;;18.10;8.35;;;;;;;;;;5077609;28;20031;-77
2022/11/17 09:41:22;;;;;;;15.30;8.85;;;;;;;;;;5096436;28;20032;-77
2022/11/17 09:44:07;;;;;;;19.33;8.00;;;;;;;;;;5089042;28;20028;-78
2022/11/17 09:46:55;;;;;;;13.02;7.65;;;;;;;;;;5098588;28;20027;-79
2022/11/17 09:49:21;;;;;;;14.75;8.35;;;;;;;;;;5099671;28;20032;-78
2022/11/17 09:51:48;;;;;;;11.70;7.32;;;;;;;;;;5065781;28;20024;-77
2022/11/17 09:54:28;;;;;;;14.65;8.98;;;;;;;;;;5086742;28;20593;-78
2022/11/17 09:56:57;;;;;;;17.77;10.13;;;;;;;;;;5065421;28;20404;-76
2022/11/17 09:59:23;;;;;;;15.35;8.90;;;;;;;;;;5086825;28;20035;-78
2022/11/17 10:01:49;;;;;;;13.23;8.30;;;;;;;;;;5085439;28;20038;-78
2022/11/17 10:04:15;;;;;;;18.45;8.88;;;;;;;;;;5085206;28;20509;-77
2022/11/17 10:06:44;;;;;;;18.67;8.50;;;;;;;;;;5068167;28;20028;-79
2022/11/17 10:09:22;;;;;;;18.63;8.38;;;;;;;;;;5067648;28;20024;-77
2022/11/17 10:11:48;;;;;;;13.32;8.30;;;;;;;;;;5068751;28;20161;-78
2022/11/17 10:14:16;;;;;;;14.40;8.30;;;;;;;;;;5070384;28;20035;-77
2022/11/17 10:16:44;;;;;;;13.85;8.77;;;;;;;;;;5087083;28;20036;-79
2022/11/17 10:19:27;;;;;;;14.85;8.68;;;;;;;;;;5073380;28;20871;-78
2022/11/17 10:22:02;;;;;;;15.15;8.55;;;;;;;;;;5067358;28;20664;-77
2022/11/17 10:24:37;;;;;;;17.27;8.80;;;;;;;;;;5087981;28;20396;-76
2022/11/17 10:27:18;;;;;;;20.05;10.20;;;;;;;;;;5066347;28;20127;-76
2022/11/17 10:29:55;;;;;;;20.88;11.30;;;;;;;;;;5085365;28;20035;-77
2022/11/17 10:32:21;;;;;;;18.10;10.25;;;;;;;;;;5087868;28;20024;-76
2022/11/17 10:34:48;;;;;;;24.45;10.30;;;;;;;;;;5066998;28;20523;-77
2022/11/17 10:37:16;;;;;;;22.85;11.38;;;;;;;;;;5096891;28;20028;-77
2022/11/17 10:39:43;;;;;;;21.67;9.45;;;;;;;;;;5089136;28;20024;-76
2022/11/17 10:42:35;;;;;;;19.45;11.13;;;;;;;;;;5091487;28;20099;-75
2022/11/17 10:45:01;;;;;;;17.00;10.10;;;;;;;;;;5092077;28;20036;-75
2022/11/17 10:47:38;;;;;;;20.05;11.43;;;;;;;;;;5108683;28;20036;-78
2022/11/17 10:50:07;;;;;;;21.15;11.07;;;;;;;;;;5100728;28;20090;-76
2022/11/17 10:52:33;;;;;;;16.88;10.30;;;;;;;;;;5106602;28;20050;-78
2022/11/17 10:55:15;;;;;;;19.20;10.45;;;;;;;;;;5098219;28;20028;-78
2022/11/17 10:57:43;;;;;;;16.52;9.60;;;;;;;;;;5099069;28;20080;-78
2022/11/17 11:00:21;;;;;;;17.13;10.68;;;;;;;;;;5069070;28;20087;-78
2022/11/17 11:02:47;;;;;;;16.83;10.38;;;;;;;;;;5086082;28;20023;-77
2022/11/17 11:05:20;;;;;;;18.45;9.32;;;;;;;;;;5066857;28;20085;-76
2022/11/17 11:07:46;;;;;;;15.63;9.82;;;;;;;;;;5070770;28;20032;-78
2022/11/17 11:10:29;;;;;;;19.83;9.98;;;;;;;;;;5086037;28;20028;-78
2022/11/17 11:13:06;;;;;;;17.10;11.23;;;;;;;;;;5070106;28;20412;-78
2022/11/17 11:15:36;;;;;;;21.80;10.77;;;;;;;;;;5085200;28;20028;-77
2022/11/17 11:18:11;;;;;;;17.15;9.98;;;;;;;;;;5092672;28;20028;-77
2022/11/17 11:20:43;;;;;;;17.30;10.52;;;;;;;;;;5086752;28;20016;-77
2022/11/17 11:23:14;;;;;;;16.25;9.43;;;;;;;;;;5084821;28;20490;-77
2022/11/17 11:25:51;;;;;;;17.85;9.13;;;;;;;;;;5086677;28;20046;-77
2022/11/17 11:28:17;;;;;;;19.05;10.52;;;;;;;;;;5086594;28;20032;-77
2022/11/17 11:31:05;;;;;;;19.38;9.65;;;;;;;;;;5089605;28;20035;-77
2022/11/17 11:33:36;;;;;;;17.40;9.05;;;;;;;;;;5088229;28;20047;-77
2022/11/17 11:36:19;;;;;;;15.95;9.18;;;;;;;;;;5070464;28;20501;-77
2022/11/17 11:38:55;;;;;;;21.17;11.23;;;;;;;;;;5080221;28;20027;-77
2022/11/17 11:41:34;;;;;;;21.88;10.52;;;;;;;;;;5085382;28;20107;-77
2022/11/17 11:44:15;;;;;;;20.05;10.95;;;;;;;;;;5085616;28;20108;-78
2022/11/17 11:46:51;;;;;;;19.25;10.07;;;;;;;;;;5067276;28;20485;-78
2022/11/17 11:49:35;;;;;;;20.90;10.27;;;;;;;;;;5085109;28;20455;-77
2022/11/17 11:52:04;;;;;;;22.52;9.80;;;;;;;;;;5088703;28;20575;-79
2022/11/17 11:54:36;;;;;;;17.08;10.18;;;;;;;;;;5084189;28;20030;-77
2022/11/17 11:57:02;;;;;;;19.85;9.82;;;;;;;;;;5089297;28;20024;-78
2022/11/17 11:59:48;;;;;;;18.35;9.90;;;;;;;;;;5067561;28;20417;-78
2022/11/17 12:02:33;;;;;;;16.70;9.90;;;;;;;;;;5083345;28;20073;-78
2022/11/17 12:05:07;;;;;;;19.42;10.30;;;;;;;;;;5080490;28;20030;-76
2022/11/17 12:07:59;;;;;;;22.77;14.10;;;;;;;;;;5088326;28;20700;-78
2022/11/17 12:10:43;;;;;;;27.40;15.07;;;;;;;;;;5085467;28;20043;-77
2022/11/17 12:13:14;;;;;;;32.30;16.92;;;;;;;;;;5076175;28;20035;-77
2022/11/17 12:15:40;;;;;;;28.42;14.07;;;;;;;;;;5080096;28;20020;-76
2022/11/17 12:18:18;;;;;;;29.02;13.75;;;;;;;;;;5079261;28;20028;-77
2022/11/17 12:20:44;;;;;;;23.05;11.85;;;;;;;;;;5059158;28;20036;-77
2022/11/17 12:23:21;;;;;;;26.13;13.90;;;;;;;;;;5079111;28;20027;-76
2022/11/17 12:25:49;;;;;;;21.67;12.02;;;;;;;;;;5078657;28;20024;-74
2022/11/17 12:28:35;;;;;;;27.23;14.32;;;;;;;;;;5080925;28;20027;-76
2022/11/17 12:31:04;;;;;;;23.13;12.65;;;;;;;;;;5079907;28;20028;-77
2022/11/17 12:33:49;;;;;;;20.00;12.05;;;;;;;;;;5081692;28;20101;-76
2022/11/17 12:36:25;;;;;;;23.55;12.35;;;;;;;;;;5082140;28;20028;-77
2022/11/17 12:38:51;;;;;;;;;;;;;;;;;;5065320;28;20016;-79
2022/11/17 12:41:17;;;;;;;;;;;;;;;;;;5069340;28;19915;-78
2022/11/17 12:43:43;;;;;;;28.70;13.52;;;;;;;;;;5089985;28;19912;-79
2022/11/17 12:46:12;;;;;;;29.35;13.70;;;;;;;;;;5090396;28;20035;-78
2022/11/17 12:48:39;;;;;;;31.83;14.30;;;;;;;;;;5092397;28;20020;-77
2022/11/17 12:51:08;;;;;;;26.90;13.70;;;;;;;;;;5090912;28;20016;-77
2022/11/17 12:53:41;;;;;;;26.63;13.18;;;;;;;;;;5090174;28;20124;-78
2022/11/17 12:56:33;;;;;;;26.00;14.65;;;;;;;;;;5071807;28;20377;-79
2022/11/17 12:59:07;;;;;;;26.30;14.55;;;;;;;;;;5046356;28;20115;-77
2022/11/17 13:01:36;;;;;;;32.38;15.55;;;;;;;;;;5086625;28;20511;-78
2022/11/17 13:04:03;;;;;;;29.50;16.48;;;;;;;;;;5085845;28;20028;-76
2022/11/17 13:06:29;;;;;;;23.05;14.30;;;;;;;;;;5087328;28;20096;-76
2022/11/17 13:08:59;;;;;;;25.55;15.23;;;;;;;;;;5087524;28;20647;-76
2022/11/17 13:11:25;;;;;;;30.27;14.82;;;;;;;;;;5068720;28;20043;-77
2022/11/17 13:14:27;;;;;;;30.45;16.40;;;;;;;;;;5088150;28;20435;-77
2022/11/17 13:16:53;;;;;;;28.02;13.60;;;;;;;;;;5086755;28;20196;-76
2022/11/17 13:19:38;;;;;;;29.52;15.75;;;;;;;;;;5070593;28;20052;-77
2022/11/17 13:22:15;;;;;;;24.95;12.52;;;;;;;;;;5086055;28;20423;-76
2022/11/17 13:24:43;;;;;;;19.80;12.90;;;;;;;;;;5068896;28;20493;-76
2022/11/17 13:27:23;;;;;;;21.50;11.45;;;;;;;;;;5090554;28;20031;-76
2022/11/17 13:29:50;;;;;;;22.33;9.35;;;;;;;;;;5071039;28;20509;-76
2022/11/17 13:32:20;;;;;;;13.55;8.05;;;;;;;;;;5091099;28;20107;-77
2022/11/17 13:34:51;;;;;;;15.65;7.90;;;;;;;;;;5087755;28;20043;-77
2022/11/17 13:37:19;;;;;;;15.23;7.82;;;;;;;;;;5089157;28;20047;-77
2022/11/17 13:40:02;;;;;;;13.57;8.07;;;;;;;;;;5086857;28;20058;-77
2022/11/17 13:42:32;;;;;;;17.33;8.70;;;;;;;;;;5088180;28;20149;-78
2022/11/17 13:45:00;;;;;;;12.88;7.72;;;;;;;;;;5088957;28;20047;-76
2022/11/17 13:47:46;;;;;;;17.13;8.63;;;;;;;;;;5089548;28;20024;-77
2022/11/17 13:50:30;;;;;;;9.73;6.30;;;;;;;;;;5069145;28;20024;-77
2022/11/17 13:52:56;;;;;;;9.27;6.40;;;;;;;;;;5087777;28;20082;-76
2022/11/17 13:55:23;;;;;;;8.75;5.72;;;;;;;;;;5068508;28;20469;-76
2022/11/17 13:57:57;;;;;;;10.88;6.75;;;;;;;;;;5094775;28;20093;-76
2022/11/17 14:00:24;;;;;;;11.15;6.22;;;;;;;;;;5087107;28;20051;-77
2022/11/17 14:03:00;;;;;;;8.77;5.63;;;;;;;;;;5088911;28;20034;-76
2022/11/17 14:05:28;;;;;;;12.40;5.80;;;;;;;;;;5088379;28;20420;-77
2022/11/17 14:07:55;;;;;;;9.57;5.97;;;;;;;;;;5099269;28;20036;-78
2022/11/17 14:10:21;;;;;;;8.07;6.00;;;;;;;;;;5089034;28;20020;-78
2022/11/17 14:12:49;;;;;;;10.85;6.40;;;;;;;;;;5087556;28;20024;-79
2022/11/17 14:15:23;;;;;;;8.68;5.80;;;;;;;;;;5088424;28;20024;-78
2022/11/17 14:17:50;;;;;;;10.98;6.95;;;;;;;;;;5087210;28;20020;-78
2022/11/17 14:20:29;;;;;;;11.50;6.07;;;;;;;;;;5089816;28;20097;-81
2022/11/17 14:23:07;;;;;;;13.35;7.65;;;;;;;;;;5100926;28;20024;-80
2022/11/17 14:25:34;;;;;;;10.43;7.18;;;;;;;;;;5077947;28;20023;-79
2022/11/17 14:28:00;;;;;;;14.65;8.10;;;;;;;;;;5095546;28;20485;-79
2022/11/17 14:30:26;;;;;;;11.90;6.85;;;;;;;;;;5091819;28;20019;-78
2022/11/17 14:32:52;;;;;;;11.25;6.53;;;;;;;;;;5087365;28;20542;-79
2022/11/17 14:35:18;;;;;;;15.00;7.40;;;;;;;;;;5091615;28;20023;-78
2022/11/17 14:37:45;;;;;;;12.50;7.38;;;;;;;;;;5084213;28;20493;-77
2022/11/17 14:40:14;;;;;;;12.82;7.60;;;;;;;;;;5088359;28;20035;-77
2022/11/17 14:42:41;;;;;;;13.95;8.65;;;;;;;;;;5082697;28;20255;-77
2022/11/17 14:45:08;;;;;;;13.82;7.78;;;;;;;;;;5085883;28;20503;-77
2022/11/17 14:47:34;;;;;;;12.55;8.18;;;;;;;;;;5087383;28;20029;-78
2022/11/17 14:50:00;;;;;;;16.88;10.00;;;;;;;;;;5089558;28;20032;-77
2022/11/17 14:52:26;;;;;;;14.45;10.63;;;;;;;;;;5086164;28;20101;-78
2022/11/17 14:54:52;;;;;;;14.82;8.05;;;;;;;;;;5086178;28;20028;-77
2022/11/17 14:57:19;;;;;;;15.27;9.82;;;;;;;;;;5087926;28;20016;-77
2022/11/17 14:59:45;;;;;;;13.57;9.63;;;;;;;;;;5087477;28;20103;-78
2022/11/17 15:02:11;;;;;;;11.95;7.47;;;;;;;;;;5088549;28;20065;-78
2022/11/17 15:04:40;;;;;;;15.45;7.13;;;;;;;;;;5089244;28;20089;-78